sensor_id;sensor_type;location;lat;lon;timestamp;P1;durP1;ratioP1;P2;durP2;ratioP2
11269;SDS011;5692;48.956;9.200;2023-04-15T00:01:21;126.88;;;120.78;;
11269;SDS011;5692;48.956;9.200;2023-04-15T00:03:49;127.03;;;120.95;;
11269;SDS011;5692;48.956;9.200;2023-04-15T00:06:18;121.03;;;115.22;;
11269;SDS011;5692;48.956;9.200;2023-04-15T00:08:45;123.07;;;117.18;;
11269;SDS011;5692;48.956;9.200;2023-04-15T00:11:15;115.60;;;110.03;;
11269;SDS011;5692;48.956;9.200;2023-04-15T00:13:41;119.30;;;113.57;;
11269;SDS011;5692;48.956;9.200;2023-04-15T00:16:08;117.95;;;112.25;;
11269;SDS011;5692;48.956;9.200;2023-04-15T00:18:35;122.82;;;116.93;;
11269;SDS011;5692;48.956;9.200;2023-04-15T00:21:01;129.95;;;123.72;;
11269;SDS011;5692;48.956;9.200;2023-04-15T00:23:30;124.53;;;118.53;;
11269;SDS011;5692;48.956;9.200;2023-04-15T00:26:02;121.63;;;115.80;;
11269;SDS011;5692;48.956;9.200;2023-04-15T00:28:31;117.60;;;111.95;;
11269;SDS011;5692;48.956;9.200;2023-04-15T00:31:00;118.90;;;113.20;;
11269;SDS011;5692;48.956;9.200;2023-04-15T00:33:26;129.82;;;123.63;;
11269;SDS011;5692;48.956;9.200;2023-04-15T00:35:54;130.45;;;124.20;;
11269;SDS011;5692;48.956;9.200;2023-04-15T00:38:23;120.22;;;114.43;;
11269;SDS011;5692;48.956;9.200;2023-04-15T00:40:49;122.45;;;116.55;;
11269;SDS011;5692;48.956;9.200;2023-04-15T00:43:24;125.20;;;119.20;;
11269;SDS011;5692;48.956;9.200;2023-04-15T00:45:52;131.90;;;125.57;;
11269;SDS011;5692;48.956;9.200;2023-04-15T00:48:22;132.50;;;126.13;;
11269;SDS011;5692;48.956;9.200;2023-04-15T00:50:51;133.55;;;127.15;;
11269;SDS011;5692;48.956;9.200;2023-04-15T00:53:17;129.98;;;123.72;;
11269;SDS011;5692;48.956;9.200;2023-04-15T00:55:43;132.13;;;125.82;;
11269;SDS011;5692;48.956;9.200;2023-04-15T00:58:10;130.10;;;123.85;;
11269;SDS011;5692;48.956;9.200;2023-04-15T01:00:36;125.00;;;119.00;;
11269;SDS011;5692;48.956;9.200;2023-04-15T01:03:02;133.10;;;126.70;;
11269;SDS011;5692;48.956;9.200;2023-04-15T01:05:30;119.40;;;113.68;;
11269;SDS011;5692;48.956;9.200;2023-04-15T01:07:59;106.43;;;101.32;;
11269;SDS011;5692;48.956;9.200;2023-04-15T01:10:25;106.28;;;101.18;;
11269;SDS011;5692;48.956;9.200;2023-04-15T01:12:51;105.53;;;100.43;;
11269;SDS011;5692;48.956;9.200;2023-04-15T01:15:17;109.22;;;103.97;;
11269;SDS011;5692;48.956;9.200;2023-04-15T01:17:46;113.95;;;108.45;;
11269;SDS011;5692;48.956;9.200;2023-04-15T01:20:13;116.72;;;111.13;;
11269;SDS011;5692;48.956;9.200;2023-04-15T01:22:40;120.90;;;115.10;;
11269;SDS011;5692;48.956;9.200;2023-04-15T01:25:11;118.38;;;112.68;;
11269;SDS011;5692;48.956;9.200;2023-04-15T01:27:38;116.65;;;111.05;;
11269;SDS011;5692;48.956;9.200;2023-04-15T01:30:05;114.80;;;109.30;;
11269;SDS011;5692;48.956;9.200;2023-04-15T01:32:32;121.88;;;116.03;;
11269;SDS011;5692;48.956;9.200;2023-04-15T01:34:58;116.53;;;110.93;;
11269;SDS011;5692;48.956;9.200;2023-04-15T01:37:24;119.07;;;113.38;;
11269;SDS011;5692;48.956;9.200;2023-04-15T01:39:51;114.85;;;109.35;;
11269;SDS011;5692;48.956;9.200;2023-04-15T01:42:17;120.22;;;114.43;;
11269;SDS011;5692;48.956;9.200;2023-04-15T01:44:43;116.20;;;110.60;;
11269;SDS011;5692;48.956;9.200;2023-04-15T01:47:09;119.95;;;114.18;;
11269;SDS011;5692;48.956;9.200;2023-04-15T01:49:38;122.85;;;116.95;;
11269;SDS011;5692;48.956;9.200;2023-04-15T01:52:05;121.72;;;115.90;;
11269;SDS011;5692;48.956;9.200;2023-04-15T01:54:36;119.85;;;114.05;;
11269;SDS011;5692;48.956;9.200;2023-04-15T01:57:02;123.15;;;117.25;;
11269;SDS011;5692;48.956;9.200;2023-04-15T01:59:29;118.63;;;112.93;;
11269;SDS011;5692;48.956;9.200;2023-04-15T02:01:56;116.32;;;110.72;;
11269;SDS011;5692;48.956;9.200;2023-04-15T02:04:22;121.05;;;115.25;;
11269;SDS011;5692;48.956;9.200;2023-04-15T02:06:54;115.22;;;109.72;;
11269;SDS011;5692;48.956;9.200;2023-04-15T02:09:23;121.20;;;115.40;;
11269;SDS011;5692;48.956;9.200;2023-04-15T02:11:49;118.07;;;112.40;;
11269;SDS011;5692;48.956;9.200;2023-04-15T02:14:16;117.47;;;111.82;;
11269;SDS011;5692;48.956;9.200;2023-04-15T02:16:44;118.15;;;112.47;;
11269;SDS011;5692;48.956;9.200;2023-04-15T02:19:13;121.28;;;115.45;;
11269;SDS011;5692;48.956;9.200;2023-04-15T02:21:39;113.63;;;108.15;;
11269;SDS011;5692;48.956;9.200;2023-04-15T02:24:08;121.72;;;115.88;;
11269;SDS011;5692;48.956;9.200;2023-04-15T02:26:37;126.00;;;119.95;;
11269;SDS011;5692;48.956;9.200;2023-04-15T02:29:13;130.02;;;123.78;;
11269;SDS011;5692;48.956;9.200;2023-04-15T02:31:42;133.00;;;126.60;;
11269;SDS011;5692;48.956;9.200;2023-04-15T02:34:12;116.40;;;110.80;;
11269;SDS011;5692;48.956;9.200;2023-04-15T02:36:43;110.90;;;105.55;;
11269;SDS011;5692;48.956;9.200;2023-04-15T02:39:09;125.10;;;119.10;;
11269;SDS011;5692;48.956;9.200;2023-04-15T02:41:36;117.32;;;111.72;;
11269;SDS011;5692;48.956;9.200;2023-04-15T02:44:07;124.65;;;118.65;;
11269;SDS011;5692;48.956;9.200;2023-04-15T02:46:33;119.18;;;113.45;;
11269;SDS011;5692;48.956;9.200;2023-04-15T02:49:03;125.65;;;119.63;;
11269;SDS011;5692;48.956;9.200;2023-04-15T02:51:32;122.75;;;116.85;;
11269;SDS011;5692;48.956;9.200;2023-04-15T02:54:01;123.28;;;117.38;;
11269;SDS011;5692;48.956;9.200;2023-04-15T02:56:27;126.75;;;120.65;;
11269;SDS011;5692;48.956;9.200;2023-04-15T02:58:55;119.63;;;113.88;;
11269;SDS011;5692;48.956;9.200;2023-04-15T03:01:31;117.22;;;111.63;;
11269;SDS011;5692;48.956;9.200;2023-04-15T03:03:57;129.05;;;122.85;;
11269;SDS011;5692;48.956;9.200;2023-04-15T03:06:26;121.47;;;115.68;;
11269;SDS011;5692;48.956;9.200;2023-04-15T03:08:55;127.80;;;121.70;;
11269;SDS011;5692;48.956;9.200;2023-04-15T03:11:24;121.40;;;115.60;;
11269;SDS011;5692;48.956;9.200;2023-04-15T03:13:55;133.52;;;127.13;;
11269;SDS011;5692;48.956;9.200;2023-04-15T03:16:21;124.10;;;118.13;;
11269;SDS011;5692;48.956;9.200;2023-04-15T03:18:50;114.30;;;108.80;;
11269;SDS011;5692;48.956;9.200;2023-04-15T03:21:18;120.18;;;114.40;;
11269;SDS011;5692;48.956;9.200;2023-04-15T03:23:44;116.25;;;110.65;;
11269;SDS011;5692;48.956;9.200;2023-04-15T03:26:22;119.03;;;113.32;;
11269;SDS011;5692;48.956;9.200;2023-04-15T03:28:50;120.78;;;114.97;;
11269;SDS011;5692;48.956;9.200;2023-04-15T03:31:22;117.80;;;112.10;;
11269;SDS011;5692;48.956;9.200;2023-04-15T03:33:50;118.50;;;112.80;;
11269;SDS011;5692;48.956;9.200;2023-04-15T03:36:19;114.47;;;108.97;;
11269;SDS011;5692;48.956;9.200;2023-04-15T03:38:50;124.38;;;118.40;;
11269;SDS011;5692;48.956;9.200;2023-04-15T03:41:19;126.47;;;120.38;;
11269;SDS011;5692;48.956;9.200;2023-04-15T03:43:49;123.20;;;117.30;;
11269;SDS011;5692;48.956;9.200;2023-04-15T03:46:18;113.38;;;107.93;;
11269;SDS011;5692;48.956;9.200;2023-04-15T03:48:49;124.00;;;118.03;;
11269;SDS011;5692;48.956;9.200;2023-04-15T03:51:15;130.95;;;124.65;;
11269;SDS011;5692;48.956;9.200;2023-04-15T03:53:41;123.40;;;117.47;;
11269;SDS011;5692;48.956;9.200;2023-04-15T03:56:13;119.25;;;113.53;;
11269;SDS011;5692;48.956;9.200;2023-04-15T03:58:42;116.22;;;110.63;;
11269;SDS011;5692;48.956;9.200;2023-04-15T04:01:10;119.47;;;113.72;;
11269;SDS011;5692;48.956;9.200;2023-04-15T04:03:36;118.45;;;112.75;;
11269;SDS011;5692;48.956;9.200;2023-04-15T04:06:05;121.38;;;115.55;;
11269;SDS011;5692;48.956;9.200;2023-04-15T04:08:33;121.43;;;115.63;;
11269;SDS011;5692;48.956;9.200;2023-04-15T04:11:00;115.00;;;109.50;;
11269;SDS011;5692;48.956;9.200;2023-04-15T04:13:26;115.35;;;109.85;;
11269;SDS011;5692;48.956;9.200;2023-04-15T04:15:57;111.63;;;106.28;;
11269;SDS011;5692;48.956;9.200;2023-04-15T04:18:23;108.70;;;103.50;;
11269;SDS011;5692;48.956;9.200;2023-04-15T04:20:52;107.25;;;102.10;;
11269;SDS011;5692;48.956;9.200;2023-04-15T04:23:21;102.22;;;97.32;;
11269;SDS011;5692;48.956;9.200;2023-04-15T04:25:47;113.10;;;107.70;;
11269;SDS011;5692;48.956;9.200;2023-04-15T04:28:16;107.53;;;102.35;;
11269;SDS011;5692;48.956;9.200;2023-04-15T04:30:48;108.03;;;102.82;;
11269;SDS011;5692;48.956;9.200;2023-04-15T04:33:16;110.53;;;105.22;;
11269;SDS011;5692;48.956;9.200;2023-04-15T04:35:43;102.10;;;97.20;;
11269;SDS011;5692;48.956;9.200;2023-04-15T04:38:09;112.70;;;107.30;;
11269;SDS011;5692;48.956;9.200;2023-04-15T04:40:35;110.72;;;105.43;;
11269;SDS011;5692;48.956;9.200;2023-04-15T04:43:06;108.95;;;103.72;;
11269;SDS011;5692;48.956;9.200;2023-04-15T04:45:33;111.55;;;106.15;;
11269;SDS011;5692;48.956;9.200;2023-04-15T04:48:02;108.78;;;103.55;;
11269;SDS011;5692;48.956;9.200;2023-04-15T04:50:35;102.82;;;97.88;;
11269;SDS011;5692;48.956;9.200;2023-04-15T04:53:01;103.80;;;98.80;;
11269;SDS011;5692;48.956;9.200;2023-04-15T04:55:33;100.25;;;95.45;;
11269;SDS011;5692;48.956;9.200;2023-04-15T04:58:04;104.50;;;99.50;;
11269;SDS011;5692;48.956;9.200;2023-04-15T05:00:30;100.10;;;95.28;;
11269;SDS011;5692;48.956;9.200;2023-04-15T05:02:59;112.30;;;106.90;;
11269;SDS011;5692;48.956;9.200;2023-04-15T05:05:28;98.63;;;93.88;;
11269;SDS011;5692;48.956;9.200;2023-04-15T05:07:57;104.55;;;99.53;;
11269;SDS011;5692;48.956;9.200;2023-04-15T05:10:34;107.32;;;102.13;;
11269;SDS011;5692;48.956;9.200;2023-04-15T05:13:03;103.45;;;98.47;;
11269;SDS011;5692;48.956;9.200;2023-04-15T05:15:29;104.30;;;99.30;;
11269;SDS011;5692;48.956;9.200;2023-04-15T05:17:56;109.35;;;104.07;;
11269;SDS011;5692;48.956;9.200;2023-04-15T05:20:25;109.38;;;104.07;;
11269;SDS011;5692;48.956;9.200;2023-04-15T05:22:54;118.78;;;113.07;;
11269;SDS011;5692;48.956;9.200;2023-04-15T05:25:20;115.10;;;109.60;;
11269;SDS011;5692;48.956;9.200;2023-04-15T05:27:47;95.75;;;91.15;;
11269;SDS011;5692;48.956;9.200;2023-04-15T05:30:18;111.80;;;106.40;;
11269;SDS011;5692;48.956;9.200;2023-04-15T05:32:47;108.38;;;103.18;;
11269;SDS011;5692;48.956;9.200;2023-04-15T05:35:13;104.57;;;99.55;;
11269;SDS011;5692;48.956;9.200;2023-04-15T05:37:42;102.65;;;97.72;;
11269;SDS011;5692;48.956;9.200;2023-04-15T05:40:08;113.30;;;107.88;;
11269;SDS011;5692;48.956;9.200;2023-04-15T05:42:34;111.85;;;106.45;;
11269;SDS011;5692;48.956;9.200;2023-04-15T05:45:03;115.25;;;109.72;;
11269;SDS011;5692;48.956;9.200;2023-04-15T05:47:34;114.63;;;109.13;;
11269;SDS011;5692;48.956;9.200;2023-04-15T05:50:03;107.30;;;102.10;;
11269;SDS011;5692;48.956;9.200;2023-04-15T05:52:30;110.72;;;105.40;;
11269;SDS011;5692;48.956;9.200;2023-04-15T05:54:56;112.35;;;106.95;;
11269;SDS011;5692;48.956;9.200;2023-04-15T05:57:31;113.90;;;108.40;;
11269;SDS011;5692;48.956;9.200;2023-04-15T05:59:58;111.78;;;106.38;;
11269;SDS011;5692;48.956;9.200;2023-04-15T06:02:27;107.90;;;102.70;;
11269;SDS011;5692;48.956;9.200;2023-04-15T06:04:53;110.68;;;105.35;;
11269;SDS011;5692;48.956;9.200;2023-04-15T06:07:24;109.65;;;104.38;;
11269;SDS011;5692;48.956;9.200;2023-04-15T06:09:50;106.40;;;101.28;;
11269;SDS011;5692;48.956;9.200;2023-04-15T06:12:19;112.05;;;106.65;;
11269;SDS011;5692;48.956;9.200;2023-04-15T06:14:57;112.57;;;107.18;;
11269;SDS011;5692;48.956;9.200;2023-04-15T06:17:25;114.43;;;108.93;;
11269;SDS011;5692;48.956;9.200;2023-04-15T06:19:51;113.68;;;108.18;;
11269;SDS011;5692;48.956;9.200;2023-04-15T06:22:23;121.43;;;115.60;;
11269;SDS011;5692;48.956;9.200;2023-04-15T06:24:49;110.65;;;105.32;;
11269;SDS011;5692;48.956;9.200;2023-04-15T06:27:18;114.05;;;108.57;;
11269;SDS011;5692;48.956;9.200;2023-04-15T06:29:49;111.43;;;106.03;;
11269;SDS011;5692;48.956;9.200;2023-04-15T06:32:24;115.70;;;110.15;;
11269;SDS011;5692;48.956;9.200;2023-04-15T06:34:51;114.10;;;108.60;;
11269;SDS011;5692;48.956;9.200;2023-04-15T06:37:19;116.90;;;111.30;;
11269;SDS011;5692;48.956;9.200;2023-04-15T06:39:48;108.28;;;103.07;;
11269;SDS011;5692;48.956;9.200;2023-04-15T06:42:16;119.85;;;114.07;;
11269;SDS011;5692;48.956;9.200;2023-04-15T06:44:45;112.78;;;107.38;;
11269;SDS011;5692;48.956;9.200;2023-04-15T06:47:16;114.05;;;108.55;;
11269;SDS011;5692;48.956;9.200;2023-04-15T06:49:44;117.07;;;111.47;;
11269;SDS011;5692;48.956;9.200;2023-04-15T06:52:13;121.60;;;115.78;;
11269;SDS011;5692;48.956;9.200;2023-04-15T06:54:43;122.82;;;116.93;;
11269;SDS011;5692;48.956;9.200;2023-04-15T06:57:12;118.82;;;113.13;;
11269;SDS011;5692;48.956;9.200;2023-04-15T06:59:38;121.00;;;115.20;;
11269;SDS011;5692;48.956;9.200;2023-04-15T07:02:07;120.57;;;114.78;;
11269;SDS011;5692;48.956;9.200;2023-04-15T07:04:35;113.60;;;108.13;;
11269;SDS011;5692;48.956;9.200;2023-04-15T07:07:04;121.85;;;116.00;;
11269;SDS011;5692;48.956;9.200;2023-04-15T07:09:32;127.38;;;121.28;;
11269;SDS011;5692;48.956;9.200;2023-04-15T07:12:01;118.75;;;113.05;;
11269;SDS011;5692;48.956;9.200;2023-04-15T07:14:30;129.50;;;123.30;;
11269;SDS011;5692;48.956;9.200;2023-04-15T07:16:59;123.70;;;117.78;;
11269;SDS011;5692;48.956;9.200;2023-04-15T07:19:26;132.30;;;125.95;;
11269;SDS011;5692;48.956;9.200;2023-04-15T07:21:55;128.23;;;122.05;;
11269;SDS011;5692;48.956;9.200;2023-04-15T07:24:24;125.45;;;119.45;;
11269;SDS011;5692;48.956;9.200;2023-04-15T07:26:53;139.85;;;133.15;;
11269;SDS011;5692;48.956;9.200;2023-04-15T07:29:25;129.95;;;123.75;;
11269;SDS011;5692;48.956;9.200;2023-04-15T07:31:53;135.00;;;128.50;;
11269;SDS011;5692;48.956;9.200;2023-04-15T07:34:21;132.98;;;126.60;;
11269;SDS011;5692;48.956;9.200;2023-04-15T07:36:47;134.90;;;128.40;;
11269;SDS011;5692;48.956;9.200;2023-04-15T07:39:18;135.95;;;129.45;;
11269;SDS011;5692;48.956;9.200;2023-04-15T07:41:44;141.45;;;134.68;;
11269;SDS011;5692;48.956;9.200;2023-04-15T07:44:13;136.55;;;130.00;;
11269;SDS011;5692;48.956;9.200;2023-04-15T07:46:39;145.15;;;138.18;;
11269;SDS011;5692;48.956;9.200;2023-04-15T07:49:05;147.43;;;140.38;;
11269;SDS011;5692;48.956;9.200;2023-04-15T07:51:52;137.98;;;131.35;;
11269;SDS011;5692;48.956;9.200;2023-04-15T07:54:20;140.50;;;133.77;;
11269;SDS011;5692;48.956;9.200;2023-04-15T07:56:49;131.15;;;124.85;;
11269;SDS011;5692;48.956;9.200;2023-04-15T07:59:18;139.63;;;132.93;;
11269;SDS011;5692;48.956;9.200;2023-04-15T08:01:44;144.75;;;137.80;;
11269;SDS011;5692;48.956;9.200;2023-04-15T08:04:14;150.02;;;142.82;;
11269;SDS011;5692;48.956;9.200;2023-04-15T08:06:42;150.43;;;143.23;;
11269;SDS011;5692;48.956;9.200;2023-04-15T08:09:13;149.27;;;142.13;;
11269;SDS011;5692;48.956;9.200;2023-04-15T08:11:40;148.48;;;141.38;;
11269;SDS011;5692;48.956;9.200;2023-04-15T08:14:09;150.65;;;143.43;;
11269;SDS011;5692;48.956;9.200;2023-04-15T08:16:38;146.90;;;139.90;;
11269;SDS011;5692;48.956;9.200;2023-04-15T08:19:04;158.32;;;150.73;;
11269;SDS011;5692;48.956;9.200;2023-04-15T08:21:30;153.48;;;146.10;;
11269;SDS011;5692;48.956;9.200;2023-04-15T08:23:59;164.15;;;156.25;;
11269;SDS011;5692;48.956;9.200;2023-04-15T08:26:26;166.27;;;158.27;;
11269;SDS011;5692;48.956;9.200;2023-04-15T08:28:52;169.60;;;161.48;;
11269;SDS011;5692;48.956;9.200;2023-04-15T08:31:18;179.60;;;171.00;;
11269;SDS011;5692;48.956;9.200;2023-04-15T08:33:46;174.52;;;166.18;;
11269;SDS011;5692;48.956;9.200;2023-04-15T08:36:12;168.20;;;160.15;;
11269;SDS011;5692;48.956;9.200;2023-04-15T08:38:39;160.68;;;152.98;;
11269;SDS011;5692;48.956;9.200;2023-04-15T08:41:11;163.70;;;155.85;;
11269;SDS011;5692;48.956;9.200;2023-04-15T08:43:46;171.70;;;163.50;;
11269;SDS011;5692;48.956;9.200;2023-04-15T08:46:14;172.90;;;164.60;;
11269;SDS011;5692;48.956;9.200;2023-04-15T08:48:43;177.85;;;169.35;;
11269;SDS011;5692;48.956;9.200;2023-04-15T08:51:15;169.98;;;161.82;;
11269;SDS011;5692;48.956;9.200;2023-04-15T08:53:50;170.70;;;162.50;;
11269;SDS011;5692;48.956;9.200;2023-04-15T08:56:22;181.45;;;172.77;;
11269;SDS011;5692;48.956;9.200;2023-04-15T08:58:49;175.90;;;167.48;;
11269;SDS011;5692;48.956;9.200;2023-04-15T09:01:22;173.23;;;164.93;;
11269;SDS011;5692;48.956;9.200;2023-04-15T09:03:49;172.20;;;163.95;;
11269;SDS011;5692;48.956;9.200;2023-04-15T09:06:19;179.55;;;170.95;;
11269;SDS011;5692;48.956;9.200;2023-04-15T09:08:45;184.00;;;175.20;;
11269;SDS011;5692;48.956;9.200;2023-04-15T09:11:11;169.50;;;161.40;;
11269;SDS011;5692;48.956;9.200;2023-04-15T09:13:37;176.55;;;168.10;;
11269;SDS011;5692;48.956;9.200;2023-04-15T09:16:06;181.43;;;172.73;;
11269;SDS011;5692;48.956;9.200;2023-04-15T09:18:38;185.30;;;176.40;;
11269;SDS011;5692;48.956;9.200;2023-04-15T09:21:05;180.48;;;171.85;;
11269;SDS011;5692;48.956;9.200;2023-04-15T09:23:35;193.65;;;184.35;;
11269;SDS011;5692;48.956;9.200;2023-04-15T09:26:04;189.00;;;179.95;;
11269;SDS011;5692;48.956;9.200;2023-04-15T09:28:32;180.82;;;172.13;;
11269;SDS011;5692;48.956;9.200;2023-04-15T09:31:00;182.18;;;173.45;;
11269;SDS011;5692;48.956;9.200;2023-04-15T09:33:29;179.20;;;170.60;;
11269;SDS011;5692;48.956;9.200;2023-04-15T09:35:57;172.00;;;163.77;;
11269;SDS011;5692;48.956;9.200;2023-04-15T09:38:33;174.85;;;166.45;;
11269;SDS011;5692;48.956;9.200;2023-04-15T09:41:00;177.20;;;168.70;;
11269;SDS011;5692;48.956;9.200;2023-04-15T09:43:39;176.05;;;167.65;;
11269;SDS011;5692;48.956;9.200;2023-04-15T09:46:05;187.70;;;178.70;;
11269;SDS011;5692;48.956;9.200;2023-04-15T09:48:31;184.32;;;175.52;;
11269;SDS011;5692;48.956;9.200;2023-04-15T09:50:57;181.40;;;172.70;;
11269;SDS011;5692;48.956;9.200;2023-04-15T09:53:27;181.45;;;172.75;;
11269;SDS011;5692;48.956;9.200;2023-04-15T09:55:56;190.88;;;181.73;;
11269;SDS011;5692;48.956;9.200;2023-04-15T09:58:26;192.93;;;183.70;;
11269;SDS011;5692;48.956;9.200;2023-04-15T10:00:53;188.55;;;179.55;;
11269;SDS011;5692;48.956;9.200;2023-04-15T10:03:20;186.55;;;177.63;;
11269;SDS011;5692;48.956;9.200;2023-04-15T10:05:46;182.60;;;173.90;;
11269;SDS011;5692;48.956;9.200;2023-04-15T10:08:19;191.60;;;182.40;;
11269;SDS011;5692;48.956;9.200;2023-04-15T10:10:48;180.85;;;172.18;;
11269;SDS011;5692;48.956;9.200;2023-04-15T10:13:17;184.95;;;176.10;;
11269;SDS011;5692;48.956;9.200;2023-04-15T10:15:43;198.15;;;188.65;;
11269;SDS011;5692;48.956;9.200;2023-04-15T10:18:19;203.02;;;193.32;;
11269;SDS011;5692;48.956;9.200;2023-04-15T10:20:47;179.85;;;171.25;;
11269;SDS011;5692;48.956;9.200;2023-04-15T10:23:15;189.98;;;180.88;;
11269;SDS011;5692;48.956;9.200;2023-04-15T10:25:45;203.10;;;193.38;;
11269;SDS011;5692;48.956;9.200;2023-04-15T10:28:14;185.18;;;176.27;;
11269;SDS011;5692;48.956;9.200;2023-04-15T10:30:43;201.63;;;191.98;;
11269;SDS011;5692;48.956;9.200;2023-04-15T10:33:11;194.38;;;185.07;;
11269;SDS011;5692;48.956;9.200;2023-04-15T10:35:43;202.80;;;193.10;;
11269;SDS011;5692;48.956;9.200;2023-04-15T10:41:41;191.85;;;182.65;;
11269;SDS011;5692;48.956;9.200;2023-04-15T10:43:46;195.93;;;186.55;;
11269;SDS011;5692;48.956;9.200;2023-04-15T10:46:15;215.68;;;205.35;;
11269;SDS011;5692;48.956;9.200;2023-04-15T10:48:46;225.73;;;214.93;;
11269;SDS011;5692;48.956;9.200;2023-04-15T10:51:12;229.10;;;218.10;;
11269;SDS011;5692;48.956;9.200;2023-04-15T10:53:40;5.25;;;2.00;;
11269;SDS011;5692;48.956;9.200;2023-04-15T10:56:06;7.70;;;2.33;;
11269;SDS011;5692;48.956;9.200;2023-04-15T10:58:42;38.53;;;36.63;;
11269;SDS011;5692;48.956;9.200;2023-04-15T11:01:09;121.93;;;116.05;;
11269;SDS011;5692;48.956;9.200;2023-04-15T11:03:38;104.55;;;99.50;;
11269;SDS011;5692;48.956;9.200;2023-04-15T11:06:07;100.80;;;95.95;;
11269;SDS011;5692;48.956;9.200;2023-04-15T11:11:19;12.80;;;2.90;;
11269;SDS011;5692;48.956;9.200;2023-04-15T11:13:49;205.27;;;195.48;;
11269;SDS011;5692;48.956;9.200;2023-04-15T11:16:16;199.32;;;189.77;;
11269;SDS011;5692;48.956;9.200;2023-04-15T11:18:52;213.07;;;202.88;;
11269;SDS011;5692;48.956;9.200;2023-04-15T11:21:18;213.32;;;203.13;;
11269;SDS011;5692;48.956;9.200;2023-04-15T11:23:47;202.55;;;192.85;;
11269;SDS011;5692;48.956;9.200;2023-04-15T11:26:17;198.80;;;189.30;;
11269;SDS011;5692;48.956;9.200;2023-04-15T11:28:46;196.07;;;186.68;;
11269;SDS011;5692;48.956;9.200;2023-04-15T11:31:15;198.15;;;188.68;;
11269;SDS011;5692;48.956;9.200;2023-04-15T11:36:22;208.02;;;198.02;;
11269;SDS011;5692;48.956;9.200;2023-04-15T11:38:50;199.70;;;190.15;;
11269;SDS011;5692;48.956;9.200;2023-04-15T11:41:19;186.20;;;177.30;;
11269;SDS011;5692;48.956;9.200;2023-04-15T11:43:48;206.32;;;196.45;;
11269;SDS011;5692;48.956;9.200;2023-04-15T11:46:17;185.85;;;176.95;;
11269;SDS011;5692;48.956;9.200;2023-04-15T11:48:43;205.80;;;195.95;;
11269;SDS011;5692;48.956;9.200;2023-04-15T11:51:10;201.23;;;191.60;;
11269;SDS011;5692;48.956;9.200;2023-04-15T11:53:47;179.93;;;171.30;;
11269;SDS011;5692;48.956;9.200;2023-04-15T11:56:36;194.68;;;185.35;;
11269;SDS011;5692;48.956;9.200;2023-04-15T11:59:05;192.90;;;183.65;;
11269;SDS011;5692;48.956;9.200;2023-04-15T12:01:32;177.60;;;169.10;;
11269;SDS011;5692;48.956;9.200;2023-04-15T12:03:59;201.55;;;191.90;;
11269;SDS011;5692;48.956;9.200;2023-04-15T12:06:30;172.55;;;164.25;;
11269;SDS011;5692;48.956;9.200;2023-04-15T12:09:16;176.50;;;168.05;;
11269;SDS011;5692;48.956;9.200;2023-04-15T12:11:44;177.02;;;168.52;;
11269;SDS011;5692;48.956;9.200;2023-04-15T12:16:44;166.98;;;158.98;;
11269;SDS011;5692;48.956;9.200;2023-04-15T12:19:11;171.30;;;163.10;;
11269;SDS011;5692;48.956;9.200;2023-04-15T12:21:43;173.68;;;165.35;;
11269;SDS011;5692;48.956;9.200;2023-04-15T12:24:12;167.40;;;159.40;;
11269;SDS011;5692;48.956;9.200;2023-04-15T12:26:48;164.80;;;156.90;;
11269;SDS011;5692;48.956;9.200;2023-04-15T12:29:15;169.05;;;160.95;;
11269;SDS011;5692;48.956;9.200;2023-04-15T12:34:27;166.23;;;158.23;;
11269;SDS011;5692;48.956;9.200;2023-04-15T12:36:53;176.40;;;167.95;;
11269;SDS011;5692;48.956;9.200;2023-04-15T12:39:27;174.30;;;165.95;;
11269;SDS011;5692;48.956;9.200;2023-04-15T12:41:56;176.05;;;167.63;;
11269;SDS011;5692;48.956;9.200;2023-04-15T12:44:24;166.63;;;158.63;;
11269;SDS011;5692;48.956;9.200;2023-04-15T12:46:53;172.25;;;164.00;;
11269;SDS011;5692;48.956;9.200;2023-04-15T12:49:22;174.70;;;166.30;;
11269;SDS011;5692;48.956;9.200;2023-04-15T12:51:50;175.02;;;166.63;;
11269;SDS011;5692;48.956;9.200;2023-04-15T12:54:17;174.32;;;165.98;;
11269;SDS011;5692;48.956;9.200;2023-04-15T12:56:46;175.40;;;167.00;;
11269;SDS011;5692;48.956;9.200;2023-04-15T12:59:15;173.68;;;165.38;;
11269;SDS011;5692;48.956;9.200;2023-04-15T13:01:44;170.60;;;162.40;;
11269;SDS011;5692;48.956;9.200;2023-04-15T13:04:11;162.80;;;155.00;;
11269;SDS011;5692;48.956;9.200;2023-04-15T13:06:42;157.57;;;150.02;;
11269;SDS011;5692;48.956;9.200;2023-04-15T13:09:08;153.60;;;146.23;;
11269;SDS011;5692;48.956;9.200;2023-04-15T13:11:34;161.55;;;153.80;;
11269;SDS011;5692;48.956;9.200;2023-04-15T13:14:07;163.65;;;155.85;;
11269;SDS011;5692;48.956;9.200;2023-04-15T13:16:35;167.52;;;159.50;;
11269;SDS011;5692;48.956;9.200;2023-04-15T13:19:02;162.30;;;154.52;;
11269;SDS011;5692;48.956;9.200;2023-04-15T13:21:28;178.05;;;169.52;;
11269;SDS011;5692;48.956;9.200;2023-04-15T13:23:58;161.55;;;153.82;;
11269;SDS011;5692;48.956;9.200;2023-04-15T13:26:24;172.80;;;164.50;;
11269;SDS011;5692;48.956;9.200;2023-04-15T13:28:50;164.10;;;156.25;;
11269;SDS011;5692;48.956;9.200;2023-04-15T13:31:16;162.80;;;155.00;;
11269;SDS011;5692;48.956;9.200;2023-04-15T13:33:42;172.80;;;164.52;;
11269;SDS011;5692;48.956;9.200;2023-04-15T13:36:11;174.23;;;165.90;;
11269;SDS011;5692;48.956;9.200;2023-04-15T13:38:40;165.25;;;157.35;;
11269;SDS011;5692;48.956;9.200;2023-04-15T13:41:09;170.02;;;161.88;;
11269;SDS011;5692;48.956;9.200;2023-04-15T13:43:38;170.68;;;162.50;;
11269;SDS011;5692;48.956;9.200;2023-04-15T13:46:07;167.23;;;159.23;;
11269;SDS011;5692;48.956;9.200;2023-04-15T13:48:33;173.57;;;165.27;;
11269;SDS011;5692;48.956;9.200;2023-04-15T13:51:01;181.73;;;173.02;;
11269;SDS011;5692;48.956;9.200;2023-04-15T13:53:30;174.90;;;166.50;;
11269;SDS011;5692;48.956;9.200;2023-04-15T13:55:59;170.27;;;162.13;;
11269;SDS011;5692;48.956;9.200;2023-04-15T13:58:28;162.30;;;154.50;;
11269;SDS011;5692;48.956;9.200;2023-04-15T14:00:57;166.95;;;158.95;;
11269;SDS011;5692;48.956;9.200;2023-04-15T14:03:26;169.23;;;161.13;;
11269;SDS011;5692;48.956;9.200;2023-04-15T14:05:55;165.27;;;157.38;;
11269;SDS011;5692;48.956;9.200;2023-04-15T14:08:23;157.10;;;149.57;;
11269;SDS011;5692;48.956;9.200;2023-04-15T14:10:49;149.98;;;142.77;;
11269;SDS011;5692;48.956;9.200;2023-04-15T14:13:16;157.70;;;150.10;;
11269;SDS011;5692;48.956;9.200;2023-04-15T14:15:46;152.82;;;145.52;;
11269;SDS011;5692;48.956;9.200;2023-04-15T14:18:12;164.60;;;156.70;;
11269;SDS011;5692;48.956;9.200;2023-04-15T14:20:41;157.65;;;150.05;;
11269;SDS011;5692;48.956;9.200;2023-04-15T14:23:10;159.23;;;151.57;;
11269;SDS011;5692;48.956;9.200;2023-04-15T14:25:36;159.18;;;151.55;;
11269;SDS011;5692;48.956;9.200;2023-04-15T14:28:07;164.00;;;156.15;;
11269;SDS011;5692;48.956;9.200;2023-04-15T14:30:36;157.25;;;149.70;;
11269;SDS011;5692;48.956;9.200;2023-04-15T14:33:04;156.75;;;149.25;;